createdAt,value
2022-09-01T00:00:50.339Z,21.20
2022-09-01T00:03:37.562Z,21.20
2022-09-01T00:06:25.420Z,21.20
2022-09-01T00:09:14.608Z,21.10
2022-09-01T00:12:01.376Z,21.10
2022-09-01T00:14:49.762Z,21.00
2022-09-01T00:17:36.415Z,21.00
2022-09-01T00:20:22.904Z,21.10
2022-09-01T00:23:09.557Z,21.10
2022-09-01T00:25:56.238Z,21.10
2022-09-01T00:28:43.194Z,21.00
2022-09-01T00:31:31.408Z,20.90
2022-09-01T00:34:18.527Z,21.00
2022-09-01T00:37:05.436Z,20.90
2022-09-01T00:39:52.152Z,20.90
2022-09-01T00:42:39.819Z,20.90
2022-09-01T00:45:26.539Z,20.70
2022-09-01T00:48:15.063Z,20.60
2022-09-01T00:51:03.060Z,20.60
2022-09-01T00:53:50.156Z,20.50
2022-09-01T00:56:38.691Z,20.50
2022-09-01T00:59:27.526Z,20.40
2022-09-01T01:02:14.503Z,20.40
2022-09-01T01:05:03.258Z,20.40
2022-09-01T01:07:50.344Z,20.30
2022-09-01T01:10:40.158Z,20.30
2022-09-01T01:13:27.584Z,20.30
2022-09-01T01:16:15.931Z,20.20
2022-09-01T01:19:03.408Z,20.20
2022-09-01T01:22:09.024Z,20.20
2022-09-01T01:24:57.138Z,20.20
2022-09-01T01:27:43.835Z,20.20
2022-09-01T01:30:37.010Z,20.30
2022-09-01T01:33:26.695Z,20.30
2022-09-01T01:36:16.451Z,20.40
2022-09-01T01:39:07.800Z,20.30
2022-09-01T01:41:58.944Z,20.30
2022-09-01T01:44:46.476Z,20.30
2022-09-01T01:47:33.217Z,20.20
2022-09-01T01:50:20.132Z,20.20
2022-09-01T01:53:10.910Z,20.30
2022-09-01T01:56:00.048Z,19.70
2022-09-01T01:58:47.947Z,20.20
2022-09-01T02:01:34.726Z,20.10
2022-09-01T02:04:22.528Z,20.20
2022-09-01T02:07:12.350Z,20.10
2022-09-01T02:09:58.900Z,20.10
2022-09-01T02:12:46.345Z,20.00
2022-09-01T02:15:38.773Z,20.00
2022-09-01T02:18:27.973Z,20.10
2022-09-01T02:21:18.535Z,20.00
2022-09-01T02:24:08.506Z,20.00
2022-09-01T02:26:55.525Z,19.90
2022-09-01T02:29:43.555Z,19.80
2022-09-01T02:32:32.097Z,20.00
2022-09-01T02:35:19.075Z,20.00
2022-09-01T02:38:06.284Z,20.00
2022-09-01T02:40:53.694Z,20.10
2022-09-01T02:43:40.127Z,19.90
2022-09-01T02:46:26.780Z,19.90
2022-09-01T02:49:19.787Z,19.80
2022-09-01T02:52:06.280Z,20.10
2022-09-01T02:54:52.544Z,20.00
2022-09-01T02:57:39.036Z,19.90
2022-09-01T03:00:33.507Z,19.90
2022-09-01T03:03:21.825Z,19.90
2022-09-01T03:06:10.248Z,20.00
2022-09-01T03:09:00.327Z,20.00
2022-09-01T03:11:49.371Z,20.00
2022-09-01T03:14:35.803Z,20.00
2022-09-01T03:17:22.340Z,20.00
2022-09-01T03:20:09.920Z,20.00
2022-09-01T03:22:59.199Z,19.90
2022-09-01T03:25:47.439Z,19.90
2022-09-01T03:28:34.048Z,19.90
2022-09-01T03:31:21.522Z,19.80
2022-09-01T03:34:11.047Z,19.80
2022-09-01T03:36:57.834Z,19.90
2022-09-01T03:39:46.413Z,19.60
2022-09-01T03:42:37.136Z,19.50
2022-09-01T03:45:25.751Z,19.50
2022-09-01T03:48:12.765Z,19.50
2022-09-01T03:51:02.611Z,19.60
2022-09-01T03:53:50.613Z,19.60
2022-09-01T03:56:41.588Z,19.60
2022-09-01T03:59:30.003Z,19.90
2022-09-01T04:02:16.890Z,19.70
2022-09-01T04:05:07.757Z,19.60
2022-09-01T04:07:55.952Z,20.40
2022-09-01T04:10:47.849Z,19.80
2022-09-01T04:13:40.959Z,19.80
2022-09-01T04:16:47.204Z,19.80
2022-09-01T04:19:38.493Z,19.80
2022-09-01T04:22:29.234Z,20.20
2022-09-01T04:25:16.285Z,20.00
2022-09-01T04:28:12.898Z,20.00
2022-09-01T04:31:05.842Z,20.00
2022-09-01T04:33:53.745Z,19.90
2022-09-01T04:36:41.790Z,20.00
2022-09-01T04:39:29.410Z,20.00
2022-09-01T04:42:16.577Z,19.90
2022-09-01T04:45:10.002Z,19.90
2022-09-01T04:48:00.899Z,19.90
2022-09-01T04:50:49.433Z,19.90
2022-09-01T04:53:36.558Z,19.90
2022-09-01T04:56:23.639Z,20.00
2022-09-01T04:59:12.086Z,19.90
2022-09-01T05:02:00.680Z,20.10
2022-09-01T05:04:49.949Z,19.80
2022-09-01T05:07:38.070Z,19.90
2022-09-01T05:10:30.068Z,20.00
2022-09-01T05:13:18.583Z,20.00
2022-09-01T05:16:12.921Z,19.80
2022-09-01T05:19:01.502Z,19.90
2022-09-01T05:21:50.531Z,20.00
2022-09-01T05:24:41.911Z,20.10
2022-09-01T05:27:29.560Z,20.10
2022-09-01T05:30:18.022Z,20.20
2022-09-01T05:33:05.053Z,20.00
2022-09-01T05:35:56.506Z,20.10
2022-09-01T05:38:44.753Z,20.30
2022-09-01T05:41:32.861Z,20.30
2022-09-01T05:44:19.330Z,20.10
2022-09-01T05:47:12.167Z,19.90
2022-09-01T05:50:14.263Z,20.10
2022-09-01T05:53:01.357Z,20.20
2022-09-01T05:55:52.713Z,20.20
2022-09-01T06:01:50.249Z,20.10
2022-09-01T06:04:40.665Z,20.30
2022-09-01T06:07:28.631Z,20.30
2022-09-01T06:10:15.867Z,20.30
2022-09-01T06:13:03.777Z,20.30
2022-09-01T06:15:51.165Z,20.30
2022-09-01T06:18:41.106Z,20.30
2022-09-01T06:21:29.100Z,20.40
2022-09-01T06:24:15.711Z,20.40
2022-09-01T06:27:02.881Z,20.40
2022-09-01T06:29:54.767Z,20.50
2022-09-01T06:32:44.159Z,20.60
2022-09-01T06:35:30.649Z,20.50
2022-09-01T06:38:17.589Z,20.50
2022-09-01T06:41:05.891Z,20.50
2022-09-01T06:43:54.075Z,20.50
2022-09-01T06:46:42.144Z,20.60
2022-09-01T06:49:33.077Z,20.80
2022-09-01T06:52:20.885Z,20.80
2022-09-01T06:55:08.175Z,21.00
2022-09-01T06:58:16.877Z,21.10
2022-09-01T07:01:06.712Z,21.10
2022-09-01T07:03:57.433Z,21.10
2022-09-01T07:07:00.495Z,21.20
2022-09-01T07:10:05.947Z,21.40
2022-09-01T07:13:09.006Z,21.70
2022-09-01T07:19:06.572Z,21.90
2022-09-01T07:22:09.683Z,21.80
2022-09-01T07:25:16.708Z,21.80
2022-09-01T07:28:04.075Z,21.90
2022-09-01T07:30:53.124Z,22.00
2022-09-01T07:33:41.793Z,22.20
2022-09-01T07:36:31.552Z,22.10
2022-09-01T07:45:47.695Z,22.60
2022-09-01T07:48:36.945Z,23.10
2022-09-01T07:51:43.418Z,23.20
2022-09-01T07:54:30.267Z,23.60
2022-09-01T07:57:16.779Z,23.70
2022-09-01T08:00:03.411Z,23.80
2022-09-01T08:02:55.172Z,23.70
2022-09-01T08:05:47.581Z,23.80
2022-09-01T08:08:36.626Z,24.10
2022-09-01T08:11:58.180Z,24.10
2022-09-01T08:14:34.180Z,24.20
2022-09-01T08:17:51.553Z,24.20
2022-09-01T08:20:28.191Z,24.10
2022-09-01T08:23:18.139Z,24.00
2022-09-01T08:26:09.052Z,24.10
2022-09-01T08:28:56.177Z,24.10
2022-09-01T08:31:42.601Z,24.40
2022-09-01T08:34:32.773Z,24.80
2022-09-01T08:37:20.375Z,24.70
2022-09-01T08:40:08.234Z,24.60
2022-09-01T08:43:10.888Z,24.80
2022-09-01T08:46:10.693Z,24.90
2022-09-01T08:52:15.226Z,24.90
2022-09-01T08:55:07.126Z,25.00
2022-09-01T08:57:59.136Z,24.90
2022-09-01T09:00:57.925Z,24.70
2022-09-01T09:03:57.049Z,24.90
2022-09-01T09:06:51.408Z,25.30
2022-09-01T09:09:51.113Z,25.60
2022-09-01T09:12:57.613Z,25.70
2022-09-01T09:15:48.311Z,26.00
2022-09-01T09:18:54.728Z,26.20
2022-09-01T09:21:44.580Z,26.40
2022-09-01T09:24:47.314Z,26.30
2022-09-01T09:27:36.458Z,26.50
2022-09-01T09:30:26.512Z,26.80
2022-09-01T09:33:51.343Z,27.00
2022-09-01T09:36:41.700Z,27.30
2022-09-01T09:39:29.486Z,27.00
2022-09-01T09:42:18.043Z,26.60
2022-09-01T09:45:04.963Z,26.10
2022-09-01T09:47:52.408Z,26.30
2022-09-01T09:50:40.530Z,26.90
2022-09-01T09:53:32.612Z,27.00
2022-09-01T09:56:21.108Z,26.90
2022-09-01T09:59:45.785Z,27.30
2022-09-01T10:02:34.604Z,27.80
2022-09-01T10:05:37.429Z,28.50
2022-09-01T10:08:45.509Z,28.70
2022-09-01T10:11:41.344Z,29.50
2022-09-01T10:14:52.348Z,30.10
2022-09-01T10:17:43.630Z,30.60
2022-09-01T10:20:30.703Z,30.60
2022-09-01T10:23:18.482Z,29.90
2022-09-01T10:26:12.330Z,30.40
2022-09-01T10:29:02.800Z,30.10
2022-09-01T10:31:49.403Z,29.80
2022-09-01T10:34:42.032Z,30.30
2022-09-01T10:37:29.257Z,31.00
2022-09-01T10:40:43.827Z,30.60
2022-09-01T10:43:43.135Z,30.40
2022-09-01T10:46:51.023Z,30.00
2022-09-01T10:50:07.428Z,30.20
2022-09-01T10:52:59.180Z,30.80
2022-09-01T10:55:59.059Z,30.90
2022-09-01T11:02:35.807Z,32.10
2022-09-01T11:05:21.349Z,32.20
2022-09-01T11:08:41.090Z,32.50
2022-09-01T11:11:36.131Z,32.20
2022-09-01T11:14:27.452Z,32.50
2022-09-01T11:17:18.559Z,32.30
2022-09-01T11:20:10.477Z,32.70
2022-09-01T11:23:03.798Z,32.90
2022-09-01T11:26:19.152Z,33.40
2022-09-01T11:28:58.496Z,33.70
2022-09-01T11:31:46.603Z,33.30
2022-09-01T11:34:42.095Z,33.10
2022-09-01T11:37:28.817Z,33.30
2022-09-01T11:40:22.633Z,33.70
2022-09-01T11:43:14.944Z,33.90
2022-09-01T11:46:11.509Z,34.20
2022-09-01T11:49:04.564Z,34.20
2022-09-01T11:51:51.269Z,35.00
2022-09-01T11:54:41.533Z,35.40
2022-09-01T11:57:31.545Z,35.30
2022-09-01T12:00:28.545Z,34.70
2022-09-01T12:03:23.599Z,33.70
2022-09-01T12:06:14.254Z,33.60
2022-09-01T12:09:04.095Z,33.60
2022-09-01T12:11:51.311Z,33.80
2022-09-01T12:15:01.964Z,33.90
2022-09-01T12:17:45.110Z,34.40
2022-09-01T12:20:38.535Z,35.50
2022-09-01T12:23:29.135Z,36.70
2022-09-01T12:26:20.099Z,36.40
2022-09-01T12:29:08.041Z,36.00
2022-09-01T12:31:55.862Z,37.30
2022-09-01T12:34:44.704Z,38.00
2022-09-01T12:37:31.456Z,38.90
2022-09-01T12:40:32.650Z,38.90
2022-09-01T12:43:33.355Z,38.90
2022-09-01T12:46:41.373Z,40.20
2022-09-01T12:49:37.284Z,40.30
2022-09-01T12:52:33.868Z,39.00
2022-09-01T12:58:32.317Z,37.10
2022-09-01T13:01:32.357Z,35.70
2022-09-01T13:04:29.876Z,34.70
2022-09-01T13:07:17.010Z,33.40
2022-09-01T13:10:07.274Z,32.30
2022-09-01T13:12:53.843Z,31.80
2022-09-01T13:15:48.204Z,31.00
2022-09-01T13:19:10.366Z,30.60
2022-09-01T13:24:34.921Z,33.40
2022-09-01T13:27:22.210Z,35.50
2022-09-01T13:30:09.520Z,36.70
2022-09-01T13:36:42.598Z,39.10
2022-09-01T13:39:12.602Z,40.90
2022-09-01T13:41:59.056Z,42.20
2022-09-01T13:44:49.578Z,42.60
2022-09-01T13:48:15.073Z,42.90
2022-09-01T13:53:56.872Z,43.00
2022-09-01T13:56:43.856Z,42.80
2022-09-01T13:59:30.899Z,43.10
2022-09-01T14:02:17.649Z,43.60
2022-09-01T14:05:06.105Z,43.20
2022-09-01T14:07:54.527Z,41.60
2022-09-01T14:10:42.895Z,40.10
2022-09-01T14:13:31.227Z,39.10
2022-09-01T14:16:17.954Z,39.40
2022-09-01T14:19:05.140Z,41.50
2022-09-01T14:21:52.000Z,41.10
2022-09-01T14:24:40.940Z,40.20
2022-09-01T14:27:28.221Z,38.50
2022-09-01T14:30:18.478Z,36.50
2022-09-01T14:33:07.789Z,36.20
2022-09-01T14:35:54.479Z,37.40
2022-09-01T14:38:40.979Z,39.50
2022-09-01T14:41:29.017Z,40.10
2022-09-01T14:44:15.341Z,39.50
2022-09-01T14:47:02.130Z,39.90
2022-09-01T14:49:52.426Z,40.40
2022-09-01T14:52:39.032Z,39.90
2022-09-01T14:55:28.313Z,39.50
2022-09-01T14:57:59.802Z,37.70
2022-09-01T15:00:31.709Z,36.70
2022-09-01T15:03:00.178Z,35.90
2022-09-01T15:05:28.559Z,35.00
2022-09-01T15:07:56.701Z,35.90
2022-09-01T15:10:27.215Z,35.90
2022-09-01T15:12:58.837Z,35.80
2022-09-01T15:15:28.069Z,34.80
2022-09-01T15:17:57.427Z,34.00
2022-09-01T15:20:47.379Z,33.40
2022-09-01T15:23:16.712Z,32.30
2022-09-01T15:25:45.480Z,32.00
2022-09-01T15:28:15.621Z,31.70
2022-09-01T15:30:46.512Z,31.30
2022-09-01T15:33:16.206Z,31.00
2022-09-01T15:35:44.996Z,31.00
2022-09-01T15:38:19.554Z,30.90
2022-09-01T15:40:57.073Z,30.60
2022-09-01T15:43:29.027Z,30.30
2022-09-01T15:45:58.289Z,30.40
2022-09-01T15:48:27.524Z,30.50
2022-09-01T15:51:03.657Z,30.20
2022-09-01T15:53:31.812Z,30.50
2022-09-01T15:55:59.875Z,30.00
2022-09-01T15:58:39.087Z,30.00
2022-09-01T16:01:12.830Z,30.00
2022-09-01T16:03:41.349Z,30.00
2022-09-01T16:06:10.203Z,30.10
2022-09-01T16:08:38.422Z,30.00
2022-09-01T16:11:09.831Z,29.90
2022-09-01T16:13:40.375Z,29.80
2022-09-01T16:16:21.404Z,29.70
2022-09-01T16:18:56.098Z,29.70
2022-09-01T16:21:34.896Z,29.60
2022-09-01T16:24:08.825Z,29.40
2022-09-01T16:26:38.092Z,29.40
2022-09-01T16:29:14.063Z,28.90
2022-09-01T16:31:42.957Z,28.90
2022-09-01T16:34:18.232Z,28.90
2022-09-01T16:37:00.671Z,28.80
2022-09-01T16:39:39.277Z,28.70
2022-09-01T16:42:19.073Z,28.60
2022-09-01T16:45:03.073Z,28.60
2022-09-01T16:47:44.544Z,28.60
2022-09-01T16:50:23.887Z,28.20
2022-09-01T16:53:10.081Z,28.30
2022-09-01T16:55:46.137Z,28.10
2022-09-01T16:58:22.576Z,28.20
2022-09-01T17:01:02.090Z,28.20
2022-09-01T17:03:42.735Z,28.00
2022-09-01T17:06:20.791Z,28.10
2022-09-01T17:08:55.383Z,28.00
2022-09-01T17:11:32.846Z,28.00
2022-09-01T17:14:02.864Z,27.90
2022-09-01T17:16:37.248Z,27.80
2022-09-01T17:19:07.826Z,27.80
2022-09-01T17:21:41.772Z,27.90
2022-09-01T17:24:31.975Z,27.70
2022-09-01T17:27:07.644Z,27.60
2022-09-01T17:29:43.514Z,27.60
2022-09-01T17:32:36.701Z,27.60
2022-09-01T17:35:15.055Z,27.50
2022-09-01T17:37:55.911Z,27.40
2022-09-01T17:40:33.795Z,27.40
2022-09-01T17:43:09.744Z,27.30
2022-09-01T17:45:51.180Z,27.20
2022-09-01T17:48:27.655Z,27.00
2022-09-01T17:51:06.258Z,27.00
2022-09-01T17:53:44.071Z,26.90
2022-09-01T17:56:30.483Z,26.80
2022-09-01T17:59:11.094Z,26.60
2022-09-01T18:01:47.678Z,26.60
2022-09-01T18:04:38.670Z,26.60
2022-09-01T18:07:15.942Z,26.30
2022-09-01T18:09:48.486Z,26.40
2022-09-01T18:12:22.908Z,26.30
2022-09-01T18:14:58.120Z,26.10
2022-09-01T18:17:31.457Z,26.10
2022-09-01T18:20:08.197Z,26.00
2022-09-01T18:22:41.708Z,25.70
2022-09-01T18:25:18.426Z,25.60
2022-09-01T18:27:50.373Z,25.60
2022-09-01T18:30:36.405Z,25.50
2022-09-01T18:33:21.938Z,25.40
2022-09-01T18:36:02.982Z,25.20
2022-09-01T18:38:40.921Z,25.10
2022-09-01T18:41:30.246Z,25.00
2022-09-01T18:44:05.805Z,25.00
2022-09-01T18:46:40.732Z,24.90
2022-09-01T18:49:17.964Z,24.90
2022-09-01T18:51:57.388Z,24.80
2022-09-01T18:54:34.541Z,24.70
2022-09-01T18:57:04.847Z,24.70
2022-09-01T18:59:50.341Z,24.70
2022-09-01T19:02:31.678Z,24.70
2022-09-01T19:05:03.457Z,24.60
2022-09-01T19:07:42.694Z,24.60
2022-09-01T19:10:18.693Z,24.60
2022-09-01T19:12:55.054Z,24.60
2022-09-01T19:15:31.327Z,24.50
2022-09-01T19:18:12.624Z,24.40
2022-09-01T19:20:48.150Z,24.40
2022-09-01T19:23:26.089Z,24.50
2022-09-01T19:26:00.259Z,24.50
2022-09-01T19:28:39.937Z,24.60
2022-09-01T19:31:17.945Z,24.60
2022-09-01T19:33:51.852Z,24.60
2022-09-01T19:36:24.970Z,24.60
2022-09-01T19:38:54.833Z,24.60
2022-09-01T19:41:28.483Z,24.60
2022-09-01T19:44:05.297Z,24.60
2022-09-01T19:46:40.975Z,24.60
2022-09-01T19:49:18.294Z,24.60
2022-09-01T19:51:54.875Z,24.70
2022-09-01T19:54:30.619Z,24.70
2022-09-01T19:57:09.897Z,24.70
2022-09-01T19:59:51.003Z,24.70
2022-09-01T20:02:27.441Z,24.60
2022-09-01T20:05:03.598Z,24.60
2022-09-01T20:07:37.290Z,24.60
2022-09-01T20:10:23.252Z,24.50
2022-09-01T20:13:01.774Z,24.40
2022-09-01T20:15:36.077Z,24.50
2022-09-01T20:18:08.836Z,24.40
2022-09-01T20:20:44.962Z,24.40
2022-09-01T20:23:22.661Z,24.40
2022-09-01T20:26:04.553Z,24.40
2022-09-01T20:28:45.353Z,24.30
2022-09-01T20:31:22.924Z,24.30
2022-09-01T20:33:56.150Z,24.30
2022-09-01T20:36:30.545Z,24.20
2022-09-01T20:39:21.065Z,24.20
2022-09-01T20:41:58.213Z,24.10
2022-09-01T20:44:41.886Z,24.00
2022-09-01T20:47:10.221Z,24.00
2022-09-01T20:49:39.772Z,23.90
2022-09-01T20:52:15.168Z,23.90
2022-09-01T20:54:51.186Z,23.90
2022-09-01T20:57:33.487Z,23.90
2022-09-01T21:00:07.946Z,24.00
2022-09-01T21:02:55.413Z,24.00
2022-09-01T21:05:32.056Z,23.90
2022-09-01T21:08:20.887Z,23.70
2022-09-01T21:10:58.121Z,23.70
2022-09-01T21:13:45.213Z,23.60
2022-09-01T21:16:21.617Z,23.60
2022-09-01T21:18:59.072Z,23.50
2022-09-01T21:21:36.074Z,23.40
2022-09-01T21:24:04.669Z,23.40
2022-09-01T21:26:36.340Z,23.40
2022-09-01T21:29:25.556Z,23.40
2022-09-01T21:31:53.727Z,23.30
2022-09-01T21:34:21.761Z,23.50
2022-09-01T21:36:49.845Z,23.40
2022-09-01T21:39:21.857Z,23.40
2022-09-01T21:41:49.971Z,23.50
2022-09-01T21:44:19.403Z,23.50
2022-09-01T21:46:47.574Z,23.50
2022-09-01T21:49:15.643Z,23.40
2022-09-01T21:51:43.684Z,23.40
2022-09-01T21:54:11.730Z,23.40
2022-09-01T21:56:39.815Z,23.30
2022-09-01T21:59:07.826Z,23.40
2022-09-01T22:01:37.399Z,23.40
2022-09-01T22:04:06.027Z,23.40
2022-09-01T22:06:34.447Z,23.50
2022-09-01T22:09:03.295Z,23.30
2022-09-01T22:11:48.862Z,23.30
2022-09-01T22:14:16.924Z,23.20
2022-09-01T22:16:46.847Z,22.90
2022-09-01T22:19:15.268Z,22.80
2022-09-01T22:21:43.562Z,22.70
2022-09-01T22:24:11.984Z,22.70
2022-09-01T22:26:40.249Z,22.70
2022-09-01T22:29:09.009Z,22.50
2022-09-01T22:31:39.459Z,22.40
2022-09-01T22:34:09.136Z,22.50
2022-09-01T22:36:40.604Z,22.40
2022-09-01T22:39:10.755Z,22.30
2022-09-01T22:41:42.509Z,22.20
2022-09-01T22:44:11.541Z,22.20
2022-09-01T22:46:40.473Z,22.10
2022-09-01T22:49:10.919Z,22.00
2022-09-01T22:51:40.004Z,21.90
2022-09-01T22:54:09.556Z,21.90
2022-09-01T22:56:40.225Z,22.00
2022-09-01T22:59:10.765Z,22.00
2022-09-01T23:01:42.573Z,22.00
2022-09-01T23:04:14.252Z,21.90
2022-09-01T23:06:44.925Z,22.00
2022-09-01T23:09:14.008Z,21.90
2022-09-01T23:11:42.414Z,21.90
2022-09-01T23:14:10.945Z,21.90
2022-09-01T23:16:39.326Z,21.70
2022-09-01T23:19:07.756Z,21.70
2022-09-01T23:21:39.589Z,21.70
2022-09-01T23:24:08.255Z,21.80
2022-09-01T23:26:36.730Z,21.80
2022-09-01T23:29:05.951Z,21.80
2022-09-01T23:31:36.833Z,21.80
2022-09-01T23:34:06.955Z,21.70
2022-09-01T23:36:37.773Z,21.70
2022-09-01T23:39:06.288Z,21.80
2022-09-01T23:41:35.903Z,21.70
2022-09-01T23:44:06.335Z,21.70
2022-09-01T23:46:37.921Z,21.80
2022-09-01T23:49:06.315Z,21.80
2022-09-01T23:51:35.285Z,21.80
2022-09-01T23:54:04.956Z,21.80
2022-09-01T23:56:33.349Z,21.80
2022-09-01T23:59:01.875Z,21.70
